Hovedside
METAR-TAF:

METAR-TAF

Lufthavner :

Piggs Peak, Swaziland

breddegrad: 25-58-04S, lengdegrad: 31-15-03E, høyde over havet: 1099 m

Gjeldene værobservasjon

Denne rapporten ble laget for 1 time og 19 minutter siden, klokken 02:00 UTC
Vind 3 kt fra Nordvest
Temperatur 13°C
Luftfuktighet 94%
Trykk 1031 hPa

METAR: FDPP 140200Z AUTO 31003KT //// // ////// 13/12 Q1031

Tid: 05:19 (03:19 UTC)


TAF: fraværende

Værobservasjoner og værvarsel for over 4000 flyplasser (METAR- og TAF-rapporter).

Tilgjengelige stasjoner er representert av de røde og gule prikkene på kartet.

Hold musepekeren over prikken for å se navnet på stasjonen.

Klikk så for å se værobservasjoner og -varsler.

For å forandre kartet kan du klikke på den grønne knappen med svart kryss for å zoome inn, på den grønne knappen med strek for å zoome ut, eller på de grønne pilene for å se tilstøtende kart.


METAR-TAF: